CPX232 Details

Departure: Phoenix Sky Harbor International Airport (KPHX)
Arrival: Sacramento International Airport (KSMF)
Route: ZEPER1 SISIE DOVEE BTY KENNO DONNR SLMMR3


Current Weather Information
KPHX 181551Z 09011KT 10SM CLR 21/06 A3002 RMK AO2 SLP154 T02060056
KSMF 181553Z 33004KT 10SM CLR 11/09 A3002 RMK AO2 SLP163 T01110094